Time,TemperatureF,DewpointF,PressureIn,WindDirection,WindDirectionDegrees,WindSpeedMPH,WindSpeedGustMPH,Humidity,HourlyPrecipIn,Conditions,Clouds,dailyrainin,SoftwareType,DateUTC
2013-03-03 00:01:00,50.7,36.0,30.06,NE,53,11.5,11.5,57,0.00,RA,,0.00,WeatherDisplay:10.37,2013-03-02 23:01:00,
2013-03-03 00:06:00,50.7,36.5,30.06,ENE,61,9.2,9.2,58,0.00,RA,,0.00,WeatherDisplay:10.37,2013-03-02 23:06:00,
2013-03-03 00:11:00,50.7,36.0,30.06,NE,53,10.4,10.4,57,0.00,CLR,,0.00,WeatherDisplay:10.37,2013-03-02 23:11:00,
2013-03-03 00:16:00,51.2,34.2,30.06,NE,37,10.4,10.4,52,0.00,CLR,,0.00,WeatherDisplay:10.37,2013-03-02 23:16:00,
2013-03-03 00:21:00,51.6,33.0,30.06,NE,36,11.5,11.5,49,0.00,CLR,,0.00,WeatherDisplay:10.37,2013-03-02 23:21:00,
2013-03-03 00:26:00,51.8,32.7,30.05,NNE,33,10.4,10.4,48,0.00,CLR,,0.00,WeatherDisplay:10.37,2013-03-02 23:26:00,
2013-03-03 00:31:00,52.0,31.8,30.05,NE,50,9.2,9.2,46,0.00,CLR,,0.00,WeatherDisplay:10.37,2013-03-02 23:31:00,
2013-03-03 00:36:00,52.2,31.5,30.05,NNE,14,11.5,11.5,45,0.00,CLR,,0.00,WeatherDisplay:10.37,2013-03-02 23:36:00,
2013-03-03 00:41:00,52.5,31.2,30.05,NNE,26,11.5,11.5,44,0.00,CLR,,0.00,WeatherDisplay:10.37,2013-03-02 23:41:00,
2013-03-03 00:46:00,52.5,31.8,30.05,NNE,32,14.0,14.0,45,0.00,CLR,,0.00,WeatherDisplay:10.37,2013-03-02 23:46:00,
2013-03-03 00:51:00,52.4,32.2,30.05,NE,34,10.4,10.4,46,0.00,CLR,,0.00,WeatherDisplay:10.37,2013-03-02 23:51:00,
2013-03-03 00:56:00,52.2,32.0,30.05,NE,49,10.0,10.0,46,0.00,CLR,,0.00,WeatherDisplay:10.37,2013-03-02 23:56:00,
2013-03-03 01:01:00,52.1,32.5,30.05,NE,48,10.4,10.4,47,0.00,CLR,,0.00,WeatherDisplay:10.37,2013-03-03 00:01:00,
2013-03-03 01:06:00,52.1,31.9,30.05,NE,48,9.2,9.2,46,0.00,CLR,,0.00,WeatherDisplay:10.37,2013-03-03 00:06:00,
2013-03-03 01:11:00,52.2,32.0,30.05,NE,51,11.5,11.5,46,0.00,CLR,,0.00,WeatherDisplay:10.37,2013-03-03 00:11:00,
2013-03-03 01:16:00,52.3,31.6,30.05,NE,48,12.7,12.7,45,0.00,CLR,,0.00,WeatherDisplay:10.37,2013-03-03 00:16:00,
2013-03-03 01:21:00,52.4,31.7,30.05,NE,53,11.5,11.5,45,0.00,CLR,,0.00,WeatherDisplay:10.37,2013-03-03 00:21:00,
2013-03-03 01:26:00,52.4,32.2,30.05,NE,43,13.8,13.8,46,0.00,CLR,,0.00,WeatherDisplay:10.37,2013-03-03 00:26:00,
2013-03-03 01:31:00,52.2,32.0,30.05,NNE,32,11.5,11.5,46,0.00,CLR,,0.00,WeatherDisplay:10.37,2013-03-03 00:31:00,
2013-03-03 01:36:00,52.2,32.6,30.04,NE,54,10.4,10.4,47,0.00,CLR,,0.00,WeatherDisplay:10.37,2013-03-03 00:36:00,
2013-03-03 01:41:00,52.1,33.0,30.04,NE,54,10.4,10.4,48,0.00,CLR,,0.00,WeatherDisplay:10.37,2013-03-03 00:41:00,
2013-03-03 01:46:00,52.0,32.9,30.04,NE,40,11.5,11.5,48,0.00,CLR,,0.00,WeatherDisplay:10.37,2013-03-03 00:46:00,
2013-03-03 01:51:00,51.9,33.3,30.04,NE,54,11.5,11.5,49,0.00,CLR,,0.00,WeatherDisplay:10.37,2013-03-03 00:51:00,
2013-03-03 01:56:00,51.9,32.8,30.04,NE,56,12.0,12.0,48,0.00,CLR,,0.00,WeatherDisplay:10.37,2013-03-03 00:56:00,
2013-03-03 02:01:00,52.0,32.9,30.04,NE,49,9.2,9.2,48,0.00,CLR,,0.00,WeatherDisplay:10.37,2013-03-03 01:01:00,
2013-03-03 02:06:00,52.0,32.9,30.04,ENE,60,11.5,11.5,48,0.00,CLR,,0.00,WeatherDisplay:10.37,2013-03-03 01:06:00,
2013-03-03 02:11:00,52.0,33.4,30.04,ENE,63,11.5,11.5,49,0.00,CLR,,0.00,WeatherDisplay:10.37,2013-03-03 01:11:00,
2013-03-03 02:16:00,51.8,33.7,30.04,NE,52,11.0,11.0,50,0.00,CLR,,0.00,WeatherDisplay:10.37,2013-03-03 01:16:00,
2013-03-03 02:21:00,51.6,33.6,30.04,NE,37,9.2,9.2,50,0.00,CLR,,0.00,WeatherDisplay:10.37,2013-03-03 01:21:00,
2013-03-03 02:26:00,51.5,34.0,30.04,NE,48,10.4,10.4,51,0.00,CLR,,0.00,WeatherDisplay:10.37,2013-03-03 01:26:00,
2013-03-03 02:31:00,51.5,34.4,30.04,NE,50,10.4,10.4,52,0.00,CLR,,0.00,WeatherDisplay:10.37,2013-03-03 01:31:00,
2013-03-03 02:36:00,51.3,34.7,30.03,NE,47,11.5,11.5,53,0.00,CLR,,0.00,WeatherDisplay:10.37,2013-03-03 01:36:00,
2013-03-03 02:41:00,51.3,35.7,30.04,NE,35,11.5,11.5,55,0.00,CLR,,0.00,WeatherDisplay:10.37,2013-03-03 01:41:00,
2013-03-03 02:46:00,51.1,36.4,30.03,NE,55,10.4,10.4,57,0.00,CLR,,0.00,WeatherDisplay:10.37,2013-03-03 01:46:00,
2013-03-03 02:51:00,50.9,37.1,30.03,ENE,58,12.7,12.7,59,0.00,CLR,,0.00,WeatherDisplay:10.37,2013-03-03 01:51:00,
2013-03-03 02:56:00,50.8,37.0,30.03,NE,56,10.0,10.0,59,0.00,CLR,,0.00,WeatherDisplay:10.37,2013-03-03 01:56:00,
2013-03-03 03:01:00,50.6,36.8,30.03,NE,39,9.2,9.2,59,0.00,CLR,,0.00,WeatherDisplay:10.37,2013-03-03 02:01:00,
2013-03-03 03:06:00,50.6,36.4,30.03,NE,52,11.5,11.5,58,0.00,CLR,,0.00,WeatherDisplay:10.37,2013-03-03 02:06:00,
2013-03-03 03:11:00,50.8,36.5,30.03,NE,37,11.5,11.5,58,0.00,CLR,,0.00,WeatherDisplay:10.37,2013-03-03 02:11:00,
2013-03-03 03:16:00,50.7,36.9,30.03,NE,37,10.4,10.4,59,0.00,CLR,,0.00,WeatherDisplay:10.37,2013-03-03 02:16:00,
2013-03-03 03:21:00,50.8,37.0,30.02,NE,40,11.5,11.5,59,0.00,CLR,,0.00,WeatherDisplay:10.37,2013-03-03 02:21:00,
2013-03-03 03:26:00,50.8,37.0,30.02,NE,43,10.4,10.4,59,0.00,CLR,,0.00,WeatherDisplay:10.37,2013-03-03 02:26:00,
2013-03-03 03:31:00,50.7,37.3,30.02,ENE,58,10.4,10.4,60,0.00,CLR,,0.00,WeatherDisplay:10.37,2013-03-03 02:31:00,
2013-03-03 03:36:00,50.6,37.6,30.02,ENE,76,11.5,11.5,61,0.00,CLR,,0.00,WeatherDisplay:10.37,2013-03-03 02:36:00,
2013-03-03 03:41:00,50.4,38.7,30.02,ENE,57,11.5,11.5,64,0.00,CLR,,0.00,WeatherDisplay:10.37,2013-03-03 02:41:00,
2013-03-03 03:46:00,50.1,39.2,30.02,NE,42,11.5,11.5,66,0.00,CLR,,0.00,WeatherDisplay:10.37,2013-03-03 02:46:00,
2013-03-03 03:51:00,49.9,39.8,30.02,ENE,69,11.5,11.5,68,0.00,CLR,,0.00,WeatherDisplay:10.37,2013-03-03 02:51:00,
2013-03-03 03:56:00,49.8,40.4,30.01,NE,53,11.5,11.5,70,0.00,CLR,,0.00,WeatherDisplay:10.37,2013-03-03 02:56:00,
2013-03-03 04:01:00,49.7,40.3,30.01,ENE,57,11.5,11.5,70,0.00,CLR,,0.00,WeatherDisplay:10.37,2013-03-03 03:01:00,
2013-03-03 04:06:00,49.6,40.9,30.01,NE,56,12.7,12.7,72,0.00,CLR,,0.00,WeatherDisplay:10.37,2013-03-03 03:06:00,
2013-03-03 04:11:00,49.3,41.4,30.01,NE,52,11.5,11.5,74,0.00,CLR,,0.00,WeatherDisplay:10.37,2013-03-03 03:11:00,
2013-03-03 04:16:00,49.1,41.9,30.01,ENE,60,12.7,12.7,76,0.00,CLR,,0.00,WeatherDisplay:10.37,2013-03-03 03:16:00,
2013-03-03 04:21:00,49.1,42.5,30.01,NE,55,11.5,11.5,78,0.00,CLR,,0.00,WeatherDisplay:10.37,2013-03-03 03:21:00,
2013-03-03 04:26:00,49.2,43.3,30.02,ENE,57,11.5,11.5,80,0.00,CLR,,0.00,WeatherDisplay:10.37,2013-03-03 03:26:00,
2013-03-03 04:31:00,49.0,43.4,30.01,NE,48,11.5,11.5,81,0.00,CLR,,0.00,WeatherDisplay:10.37,2013-03-03 03:31:00,
2013-03-03 04:36:00,49.0,43.7,30.01,NE,38,11.5,11.5,82,0.00,CLR,,0.00,WeatherDisplay:10.37,2013-03-03 03:36:00,
2013-03-03 04:41:00,49.0,44.1,30.01,NE,52,15.0,15.0,83,0.00,CLR,,0.00,WeatherDisplay:10.37,2013-03-03 03:41:00,
2013-03-03 04:46:00,49.0,44.1,30.01,NE,52,10.0,10.0,83,0.00,CLR,,0.00,WeatherDisplay:10.37,2013-03-03 03:46:00,
2013-03-03 04:51:00,49.1,44.5,30.01,NE,41,11.5,11.5,84,0.00,CLR,,0.00,WeatherDisplay:10.37,2013-03-03 03:51:00,
2013-03-03 04:56:00,49.0,44.4,30.01,NE,40,12.7,12.7,84,0.00,CLR,,0.00,WeatherDisplay:10.37,2013-03-03 03:56:00,
2013-03-03 05:01:00,49.0,44.7,30.01,NE,43,11.5,11.5,85,0.00,CLR,,0.00,WeatherDisplay:10.37,2013-03-03 04:01:00,
2013-03-03 05:06:00,49.1,44.8,30.01,NE,45,11.5,11.5,85,0.00,CLR,,0.00,WeatherDisplay:10.37,2013-03-03 04:06:00,
2013-03-03 05:11:00,49.0,44.7,30.01,ENE,72,11.5,11.5,85,0.00,CLR,,0.00,WeatherDisplay:10.37,2013-03-03 04:11:00,
2013-03-03 05:16:00,48.9,44.6,30.01,NE,49,11.5,11.5,85,0.00,CLR,,0.00,WeatherDisplay:10.37,2013-03-03 04:16:00,
2013-03-03 05:21:00,48.9,44.6,30.01,ENE,58,11.5,11.5,85,0.00,CLR,,0.00,WeatherDisplay:10.37,2013-03-03 04:21:00,
2013-03-03 05:26:00,48.9,44.6,30.01,NE,56,11.5,11.5,85,0.00,CLR,,0.00,WeatherDisplay:10.37,2013-03-03 04:26:00,
2013-03-03 05:31:00,49.0,45.0,30.01,NE,48,11.5,11.5,86,0.00,CLR,,0.00,WeatherDisplay:10.37,2013-03-03 04:31:00,
2013-03-03 05:36:00,49.1,45.1,30.01,NE,49,11.5,11.5,86,0.00,CLR,,0.00,WeatherDisplay:10.37,2013-03-03 04:36:00,
2013-03-03 05:41:00,49.1,45.1,30.01,NE,49,8.1,8.1,86,0.00,CLR,,0.00,WeatherDisplay:10.37,2013-03-03 04:41:00,
2013-03-03 05:46:00,49.1,45.1,30.01,NE,40,11.5,11.5,86,0.00,CLR,,0.00,WeatherDisplay:10.37,2013-03-03 04:46:00,
2013-03-03 05:51:00,49.1,45.1,30.01,NE,50,9.2,9.2,86,0.00,CLR,,0.00,WeatherDisplay:10.37,2013-03-03 04:51:00,
2013-03-03 05:56:00,49.0,45.0,30.01,ENE,58,9.2,9.2,86,0.00,CLR,,0.00,WeatherDisplay:10.37,2013-03-03 04:56:00,
2013-03-03 06:00:00,49.0,45.0,30.01,NE,50,9.2,9.2,86,0.00,CLR,,0.00,WeatherDisplay:10.37,2013-03-03 05:00:00,
2013-03-03 06:05:00,49.0,45.3,30.01,NE,56,11.5,11.5,87,0.00,CLR,,0.00,WeatherDisplay:10.37,2013-03-03 05:05:00,
2013-03-03 06:10:00,49.0,45.3,30.01,NE,51,10.4,10.4,87,0.00,CLR,,0.00,WeatherDisplay:10.37,2013-03-03 05:10:00,
2013-03-03 06:15:00,49.0,45.3,30.01,NNE,29,11.5,11.5,87,0.00,CLR,,0.00,WeatherDisplay:10.37,2013-03-03 05:15:00,
2013-03-03 06:20:00,49.0,45.3,30.02,ENE,58,11.5,11.5,87,0.00,CLR,,0.00,WeatherDisplay:10.37,2013-03-03 05:20:00,
2013-03-03 06:25:00,48.9,45.2,30.01,ENE,58,11.5,11.5,87,0.00,CLR,,0.00,WeatherDisplay:10.37,2013-03-03 05:25:00,
2013-03-03 06:30:00,48.8,45.1,30.01,NE,48,10.4,10.4,87,0.00,CLR,,0.00,WeatherDisplay:10.37,2013-03-03 05:30:00,
2013-03-03 06:35:00,48.9,45.2,30.01,ENE,60,11.5,11.5,87,0.00,CLR,,0.00,WeatherDisplay:10.37,2013-03-03 05:35:00,
2013-03-03 06:40:00,48.8,45.1,30.01,NE,40,11.5,11.5,87,0.00,CLR,,0.00,WeatherDisplay:10.37,2013-03-03 05:40:00,
2013-03-03 06:45:00,48.9,45.2,30.01,NE,54,11.5,11.5,87,0.00,CLR,,0.00,WeatherDisplay:10.37,2013-03-03 05:45:00,
2013-03-03 06:50:00,48.8,45.4,30.01,NE,54,11.5,11.5,88,0.00,CLR,,0.00,WeatherDisplay:10.37,2013-03-03 05:50:00,
2013-03-03 06:55:00,48.8,45.4,30.01,NE,49,11.5,11.5,88,0.00,CLR,,0.00,WeatherDisplay:10.37,2013-03-03 05:55:00,
2013-03-03 07:00:00,48.8,45.4,30.01,ENE,60,11.5,11.5,88,0.00,CLR,,0.00,WeatherDisplay:10.37,2013-03-03 06:00:00,
2013-03-03 07:05:00,48.8,45.4,30.01,NE,51,11.5,11.5,88,0.00,CLR,,0.00,WeatherDisplay:10.37,2013-03-03 06:05:00,
2013-03-03 07:10:00,48.8,45.4,30.01,NE,52,11.5,11.5,88,0.00,CLR,,0.00,WeatherDisplay:10.37,2013-03-03 06:10:00,
2013-03-03 07:15:00,48.7,45.3,30.01,ENE,70,11.5,11.5,88,0.00,CLR,,0.00,WeatherDisplay:10.37,2013-03-03 06:15:00,
2013-03-03 07:20:00,48.6,45.2,30.01,ENE,57,11.5,11.5,88,0.00,CLR,,0.00,WeatherDisplay:10.37,2013-03-03 06:20:00,
2013-03-03 07:25:00,48.6,45.2,30.01,NE,52,10.4,10.4,88,0.00,CLR,,0.00,WeatherDisplay:10.37,2013-03-03 06:25:00,
2013-03-03 07:30:00,48.7,45.3,30.01,ENE,65,11.5,11.5,88,0.00,CLR,,0.00,WeatherDisplay:10.37,2013-03-03 06:30:00,
2013-03-03 07:35:00,48.8,45.4,30.01,NE,39,11.5,11.5,88,0.00,CLR,,0.00,WeatherDisplay:10.37,2013-03-03 06:35:00,
2013-03-03 07:40:00,48.9,45.5,30.01,ENE,68,11.5,11.5,88,0.00,CLR,,0.00,WeatherDisplay:10.37,2013-03-03 06:40:00,
2013-03-03 07:45:00,48.9,45.5,30.01,ENE,68,10.4,10.4,88,0.00,CLR,,0.00,WeatherDisplay:10.37,2013-03-03 06:45:00,
2013-03-03 07:50:00,49.0,45.6,30.01,ENE,75,11.5,11.5,88,0.00,CLR,,0.00,WeatherDisplay:10.37,2013-03-03 06:50:00,
2013-03-03 07:55:00,49.1,45.7,30.01,ENE,62,11.5,11.5,88,0.00,CLR,,0.00,WeatherDisplay:10.37,2013-03-03 06:55:00,
2013-03-03 08:00:00,49.2,45.8,30.01,ENE,73,12.0,12.0,88,0.00,CLR,,0.00,WeatherDisplay:10.37,2013-03-03 07:00:00,
2013-03-03 08:05:00,49.3,45.9,30.01,NE,42,11.5,11.5,88,0.00,CLR,,0.00,WeatherDisplay:10.37,2013-03-03 07:05:00,
2013-03-03 08:10:00,49.3,45.9,30.01,East,89,11.5,11.5,88,0.00,CLR,,0.00,WeatherDisplay:10.37,2013-03-03 07:10:00,
2013-03-03 08:15:00,49.3,45.9,30.01,ENE,60,11.5,11.5,88,0.00,CLR,,0.00,WeatherDisplay:10.37,2013-03-03 07:15:00,
2013-03-03 08:20:00,49.3,45.9,30.01,NE,54,11.5,11.5,88,0.00,CLR,,0.00,WeatherDisplay:10.37,2013-03-03 07:20:00,
2013-03-03 08:25:00,49.3,45.9,30.01,East,83,11.5,11.5,88,0.00,CLR,,0.00,WeatherDisplay:10.37,2013-03-03 07:25:00,
2013-03-03 08:30:00,49.5,46.1,30.01,NE,37,11.5,11.5,88,0.00,CLR,,0.00,WeatherDisplay:10.37,2013-03-03 07:30:00,
2013-03-03 08:35:00,49.6,46.2,30.01,ENE,65,11.5,11.5,88,0.00,CLR,,0.00,WeatherDisplay:10.37,2013-03-03 07:35:00,
2013-03-03 08:40:00,49.8,46.1,30.01,NE,54,11.5,11.5,87,0.00,CLR,,0.00,WeatherDisplay:10.37,2013-03-03 07:40:00,
2013-03-03 08:45:00,49.9,46.2,30.01,East,81,12.7,12.7,87,0.00,CLR,,0.00,WeatherDisplay:10.37,2013-03-03 07:45:00,
2013-03-03 08:50:00,50.2,46.5,30.01,ENE,72,11.5,11.5,87,0.00,CLR,,0.00,WeatherDisplay:10.37,2013-03-03 07:50:00,
2013-03-03 08:55:00,50.4,46.7,30.01,East,79,11.5,11.5,87,0.00,CLR,,0.00,WeatherDisplay:10.37,2013-03-03 07:55:00,
2013-03-03 09:00:00,50.5,46.5,30.01,ENE,64,11.5,11.5,86,0.00,CLR,,0.00,WeatherDisplay:10.37,2013-03-03 08:00:00,
2013-03-03 09:05:00,50.6,46.6,30.01,NE,56,11.5,11.5,86,0.00,CLR,,0.00,WeatherDisplay:10.37,2013-03-03 08:05:00,
2013-03-03 09:10:00,50.7,46.7,30.01,ENE,70,11.5,11.5,86,0.00,CLR,,0.00,WeatherDisplay:10.37,2013-03-03 08:10:00,
2013-03-03 09:15:00,50.9,46.9,30.01,ENE,74,11.5,11.5,86,0.00,CLR,,0.00,WeatherDisplay:10.37,2013-03-03 08:15:00,
2013-03-03 09:20:00,51.0,47.0,30.01,ENE,60,11.5,11.5,86,0.00,CLR,,0.00,WeatherDisplay:10.37,2013-03-03 08:20:00,
2013-03-03 09:25:00,51.1,47.1,30.01,ENE,77,13.8,13.8,86,0.00,CLR,,0.00,WeatherDisplay:10.37,2013-03-03 08:25:00,
2013-03-03 09:30:00,51.1,46.7,30.01,ENE,58,12.7,12.7,85,0.00,CLR,,0.00,WeatherDisplay:10.37,2013-03-03 08:30:00,
2013-03-03 09:35:00,51.1,47.1,30.01,East,89,12.7,12.7,86,0.00,CLR,,0.00,WeatherDisplay:10.37,2013-03-03 08:35:00,
2013-03-03 09:40:00,51.2,47.2,30.02,East,83,9.2,9.2,86,0.00,CLR,,0.00,WeatherDisplay:10.37,2013-03-03 08:40:00,
2013-03-03 09:45:00,51.3,46.9,30.01,ENE,73,11.5,11.5,85,0.00,CLR,,0.00,WeatherDisplay:10.37,2013-03-03 08:45:00,
2013-03-03 09:50:00,51.5,47.5,30.01,East,87,12.7,12.7,86,0.00,CLR,,0.00,WeatherDisplay:10.37,2013-03-03 08:50:00,
2013-03-03 09:55:00,51.9,47.5,30.01,ENE,64,11.5,11.5,85,0.00,CLR,,0.00,WeatherDisplay:10.37,2013-03-03 08:55:00,
2013-03-03 10:00:00,52.1,47.7,30.01,ENE,68,11.5,11.5,85,0.00,CLR,,0.00,WeatherDisplay:10.37,2013-03-03 09:00:00,
2013-03-03 10:05:00,52.3,47.9,30.01,ENE,76,12.7,12.7,85,0.00,CLR,,0.00,WeatherDisplay:10.37,2013-03-03 09:05:00,
2013-03-03 10:10:00,52.8,48.4,30.01,ENE,75,12.7,12.7,85,0.00,CLR,,0.00,WeatherDisplay:10.37,2013-03-03 09:10:00,
2013-03-03 10:15:00,52.7,47.7,30.01,ENE,77,11.5,11.5,83,0.00,CLR,,0.00,WeatherDisplay:10.37,2013-03-03 09:15:00,
2013-03-03 10:20:00,52.3,47.6,30.01,ESE,108,12.7,12.7,84,0.00,CLR,,0.00,WeatherDisplay:10.37,2013-03-03 09:20:00,
2013-03-03 10:25:00,52.8,48.1,30.01,East,89,10.0,10.0,84,0.00,CLR,,0.00,WeatherDisplay:10.37,2013-03-03 09:25:00,
2013-03-03 10:30:00,52.6,47.9,30.01,ENE,69,11.5,11.5,84,0.00,CLR,,0.00,WeatherDisplay:10.37,2013-03-03 09:30:00,
2013-03-03 10:35:00,52.3,47.6,30.01,East,89,12.7,12.7,84,0.00,CLR,,0.00,WeatherDisplay:10.37,2013-03-03 09:35:00,
2013-03-03 10:40:00,52.4,47.7,30.01,East,85,12.7,12.7,84,0.00,CLR,,0.00,WeatherDisplay:10.37,2013-03-03 09:40:00,
2013-03-03 10:45:00,52.5,47.8,30.01,ESE,105,11.5,11.5,84,0.00,CLR,,0.00,WeatherDisplay:10.37,2013-03-03 09:45:00,
2013-03-03 10:50:00,52.9,48.5,30.01,East,83,6.9,6.9,85,0.00,CLR,,0.00,WeatherDisplay:10.37,2013-03-03 09:50:00,
2013-03-03 10:55:00,52.9,47.9,30.01,East,87,11.5,11.5,83,0.00,CLR,,0.00,WeatherDisplay:10.37,2013-03-03 09:55:00,
2013-03-03 11:00:00,53.0,48.0,30.01,East,83,13.8,13.8,83,0.00,CLR,,0.00,WeatherDisplay:10.37,2013-03-03 10:00:00,
2013-03-03 11:05:00,52.8,47.8,30.01,ESE,102,11.5,11.5,83,0.00,CLR,,0.00,WeatherDisplay:10.37,2013-03-03 10:05:00,
2013-03-03 11:10:00,53.5,48.5,30.01,East,80,6.9,6.9,83,0.00,CLR,,0.00,WeatherDisplay:10.37,2013-03-03 10:10:00,
2013-03-03 11:15:00,54.0,48.6,30.01,ENE,78,12.7,12.7,82,0.00,CLR,,0.00,WeatherDisplay:10.37,2013-03-03 10:15:00,
2013-03-03 11:20:00,54.1,48.1,30.01,East,81,12.7,12.7,80,0.00,CLR,,0.00,WeatherDisplay:10.37,2013-03-03 10:20:00,
2013-03-03 11:25:00,54.2,48.2,30.01,ESE,109,11.5,11.5,80,0.00,CLR,,0.00,WeatherDisplay:10.37,2013-03-03 10:25:00,
2013-03-03 11:30:00,54.7,48.0,30.01,ENE,73,11.5,11.5,78,0.00,CLR,,0.00,WeatherDisplay:10.37,2013-03-03 10:30:00,
2013-03-03 11:35:00,54.7,48.0,30.01,East,94,11.5,11.5,78,0.00,CLR,,0.00,WeatherDisplay:10.37,2013-03-03 10:35:00,
2013-03-03 11:40:00,55.0,47.6,30.01,East,82,11.5,11.5,76,0.00,CLR,,0.00,WeatherDisplay:10.37,2013-03-03 10:40:00,
2013-03-03 11:45:00,54.8,47.0,30.00,ESE,102,12.7,12.7,75,0.00,CLR,,0.00,WeatherDisplay:10.37,2013-03-03 10:45:00,
2013-03-03 11:50:00,55.1,48.0,30.00,ENE,62,12.7,12.7,77,0.00,CLR,,0.00,WeatherDisplay:10.37,2013-03-03 10:50:00,
2013-03-03 11:55:00,54.9,47.5,30.00,ENE,62,11.5,11.5,76,0.00,CLR,,0.00,WeatherDisplay:10.37,2013-03-03 10:55:00,
2013-03-03 12:00:00,55.1,47.7,30.00,ENE,62,12.7,12.7,76,0.00,CLR,,0.00,WeatherDisplay:10.37,2013-03-03 11:00:00,
2013-03-03 12:05:00,55.1,47.7,30.00,East,94,10.4,10.4,76,0.00,CLR,,0.00,WeatherDisplay:10.37,2013-03-03 11:05:00,
2013-03-03 12:10:00,54.9,47.8,30.00,East,81,11.5,11.5,77,0.00,CLR,,0.00,WeatherDisplay:10.37,2013-03-03 11:10:00,
2013-03-03 12:15:00,55.6,48.5,30.00,East,93,11.5,11.5,77,0.00,CLR,,0.00,WeatherDisplay:10.37,2013-03-03 11:15:00,
2013-03-03 12:20:00,55.2,47.8,30.00,ENE,76,12.7,12.7,76,0.00,CLR,,0.00,WeatherDisplay:10.37,2013-03-03 11:20:00,
2013-03-03 12:25:00,54.9,47.1,30.00,East,79,12.7,12.7,75,0.00,CLR,,0.00,WeatherDisplay:10.37,2013-03-03 11:25:00,
2013-03-03 12:30:00,54.9,47.8,30.00,East,99,9.2,9.2,77,0.00,CLR,,0.00,WeatherDisplay:10.37,2013-03-03 11:30:00,
2013-03-03 12:35:00,54.9,48.2,30.00,ENE,70,14.0,14.0,78,0.00,CLR,,0.00,WeatherDisplay:10.37,2013-03-03 11:35:00,
2013-03-03 12:40:00,54.5,47.8,29.99,NE,51,11.5,11.5,78,0.00,CLR,,0.00,WeatherDisplay:10.37,2013-03-03 11:40:00,
2013-03-03 12:45:00,54.8,48.4,29.99,East,91,11.5,11.5,79,0.00,CLR,,0.00,WeatherDisplay:10.37,2013-03-03 11:45:00,
2013-03-03 12:50:00,54.4,47.7,29.99,East,84,13.8,13.8,78,0.00,CLR,,0.00,WeatherDisplay:10.37,2013-03-03 11:50:00,
2013-03-03 12:55:00,54.2,47.5,29.99,SE,135,13.8,13.8,78,0.00,CLR,,0.00,WeatherDisplay:10.37,2013-03-03 11:55:00,
2013-03-03 13:00:00,54.5,48.5,29.99,East,95,10.4,10.4,80,0.00,CLR,,0.00,WeatherDisplay:10.37,2013-03-03 12:00:00,
2013-03-03 13:05:00,54.2,48.2,29.99,East,79,13.8,13.8,80,0.00,CLR,,0.00,WeatherDisplay:10.37,2013-03-03 12:05:00,
2013-03-03 13:10:00,54.1,48.1,29.98,ESE,118,16.1,16.1,80,0.00,CLR,,0.00,WeatherDisplay:10.37,2013-03-03 12:10:00,
2013-03-03 13:15:00,53.7,47.7,29.98,East,80,16.1,16.1,80,0.00,CLR,,0.00,WeatherDisplay:10.37,2013-03-03 12:15:00,
2013-03-03 13:20:00,54.1,48.1,29.98,East,98,16.1,16.1,80,0.00,CLR,,0.00,WeatherDisplay:10.37,2013-03-03 12:20:00,
2013-03-03 13:25:00,54.4,48.4,29.98,ENE,77,16.0,16.0,80,0.00,CLR,,0.00,WeatherDisplay:10.37,2013-03-03 12:25:00,
2013-03-03 13:30:00,53.8,47.8,29.98,ENE,65,13.0,13.0,80,0.00,CLR,,0.00,WeatherDisplay:10.37,2013-03-03 12:30:00,
2013-03-03 13:35:00,54.6,48.2,29.97,NE,54,15.0,15.0,79,0.00,CLR,,0.00,WeatherDisplay:10.37,2013-03-03 12:35:00,
2013-03-03 13:40:00,54.8,49.1,29.97,NNE,33,10.4,10.4,81,0.00,CLR,,0.00,WeatherDisplay:10.37,2013-03-03 12:40:00,
2013-03-03 13:45:00,55.2,48.1,29.97,ESE,102,12.7,12.7,77,0.00,CLR,,0.00,WeatherDisplay:10.37,2013-03-03 12:45:00,
2013-03-03 13:50:00,54.7,48.0,29.97,ENE,78,16.1,16.1,78,0.00,CLR,,0.00,WeatherDisplay:10.37,2013-03-03 12:50:00,
2013-03-03 13:55:00,54.6,47.9,29.97,ESE,106,13.8,13.8,78,0.00,CLR,,0.00,WeatherDisplay:10.37,2013-03-03 12:55:00,
2013-03-03 14:00:00,54.3,48.3,29.97,East,95,15.0,15.0,80,0.00,CLR,,0.00,WeatherDisplay:10.37,2013-03-03 13:00:00,
2013-03-03 14:05:00,53.9,47.9,29.96,East,89,13.8,13.8,80,0.00,CLR,,0.00,WeatherDisplay:10.37,2013-03-03 13:05:00,
2013-03-03 14:10:00,54.3,48.3,29.96,ESE,109,11.5,11.5,80,0.00,CLR,,0.00,WeatherDisplay:10.37,2013-03-03 13:10:00,
2013-03-03 14:15:00,54.2,47.8,29.96,NE,47,18.4,18.4,79,0.00,CLR,,0.00,WeatherDisplay:10.37,2013-03-03 13:15:00,
2013-03-03 14:20:00,54.2,48.2,29.96,ENE,58,18.4,18.4,80,0.00,CLR,,0.00,WeatherDisplay:10.37,2013-03-03 13:20:00,
2013-03-03 14:25:00,54.3,48.3,29.96,East,92,13.0,13.0,80,0.00,CLR,,0.00,WeatherDisplay:10.37,2013-03-03 13:25:00,
2013-03-03 14:30:00,54.1,47.7,29.96,ENE,75,17.3,17.3,79,0.00,CLR,,0.00,WeatherDisplay:10.37,2013-03-03 13:30:00,
2013-03-03 14:35:00,54.0,48.0,29.96,ESE,104,13.8,13.8,80,0.00,CLR,,0.00,WeatherDisplay:10.37,2013-03-03 13:35:00,
2013-03-03 14:40:00,54.1,48.1,29.96,ENE,68,13.8,13.8,80,0.00,CLR,,0.00,WeatherDisplay:10.37,2013-03-03 13:40:00,
2013-03-03 14:45:00,54.0,48.0,29.95,ESE,102,14.0,14.0,80,0.00,CLR,,0.00,WeatherDisplay:10.37,2013-03-03 13:45:00,
2013-03-03 14:50:00,53.8,48.1,29.96,ENE,74,17.3,17.3,81,0.00,CLR,,0.00,WeatherDisplay:10.37,2013-03-03 13:50:00,
2013-03-03 14:55:00,54.0,48.0,29.96,ESE,123,11.5,11.5,80,0.00,CLR,,0.00,WeatherDisplay:10.37,2013-03-03 13:55:00,
2013-03-03 15:00:00,54.5,48.8,29.95,ESE,108,11.5,11.5,81,0.00,CLR,,0.00,WeatherDisplay:10.37,2013-03-03 14:00:00,
2013-03-03 15:05:00,54.2,48.2,29.95,East,85,13.8,13.8,80,0.00,CLR,,0.00,WeatherDisplay:10.37,2013-03-03 14:05:00,
2013-03-03 15:10:00,53.9,48.2,29.95,ESE,104,12.7,12.7,81,0.00,CLR,,0.00,WeatherDisplay:10.37,2013-03-03 14:10:00,
2013-03-03 15:15:00,54.0,48.0,29.95,ESE,115,10.0,10.0,80,0.00,CLR,,0.00,WeatherDisplay:10.37,2013-03-03 14:15:00,
2013-03-03 15:20:00,54.0,48.3,29.95,ENE,58,9.2,9.2,81,0.00,CLR,,0.00,WeatherDisplay:10.37,2013-03-03 14:20:00,
2013-03-03 15:25:00,53.7,48.0,29.95,East,98,10.4,10.4,81,0.00,CLR,,0.00,WeatherDisplay:10.37,2013-03-03 14:25:00,
2013-03-03 15:30:00,53.7,48.0,29.95,East,94,10.0,10.0,81,0.00,CLR,,0.00,WeatherDisplay:10.37,2013-03-03 14:30:00,
2013-03-03 15:35:00,53.7,47.7,29.96,ENE,73,10.4,10.4,80,0.00,CLR,,0.00,WeatherDisplay:10.37,2013-03-03 14:35:00,
2013-03-03 15:40:00,53.7,48.0,29.95,ENE,67,11.0,11.0,81,0.00,CLR,,0.00,WeatherDisplay:10.37,2013-03-03 14:40:00,
2013-03-03 15:45:00,53.6,48.2,29.95,ENE,64,11.5,11.5,82,0.00,CLR,,0.00,WeatherDisplay:10.37,2013-03-03 14:45:00,
2013-03-03 15:50:00,53.8,48.1,29.95,East,83,12.7,12.7,81,0.00,CLR,,0.00,WeatherDisplay:10.37,2013-03-03 14:50:00,
2013-03-03 15:55:00,53.7,48.0,29.95,ESE,111,11.5,11.5,81,0.00,CLR,,0.00,WeatherDisplay:10.37,2013-03-03 14:55:00,
2013-03-03 16:00:00,53.7,47.3,29.95,NE,54,16.1,16.1,79,0.00,CLR,,0.00,WeatherDisplay:10.37,2013-03-03 15:00:00,
2013-03-03 16:05:00,53.7,48.0,29.95,East,85,8.1,8.1,81,0.00,CLR,,0.00,WeatherDisplay:10.37,2013-03-03 15:05:00,
2013-03-03 16:10:00,53.8,47.8,29.95,East,91,13.8,13.8,80,0.00,CLR,,0.00,WeatherDisplay:10.37,2013-03-03 15:10:00,
2013-03-03 16:15:00,53.6,47.6,29.95,ESE,106,11.5,11.5,80,0.00,CLR,,0.00,WeatherDisplay:10.37,2013-03-03 15:15:00,
2013-03-03 16:20:00,53.5,47.8,29.94,East,83,11.5,11.5,81,0.00,CLR,,0.00,WeatherDisplay:10.37,2013-03-03 15:20:00,
2013-03-03 16:25:00,53.4,47.4,29.95,ENE,62,12.7,12.7,80,0.00,CLR,,0.00,WeatherDisplay:10.37,2013-03-03 15:25:00,
2013-03-03 16:30:00,53.3,47.6,29.95,East,93,11.5,11.5,81,0.00,CLR,,0.00,WeatherDisplay:10.37,2013-03-03 15:30:00,
2013-03-03 16:35:00,53.4,47.7,29.95,East,99,9.2,9.2,81,0.00,CLR,,0.00,WeatherDisplay:10.37,2013-03-03 15:35:00,
2013-03-03 16:40:00,53.4,47.7,29.95,East,90,11.5,11.5,81,0.00,CLR,,0.00,WeatherDisplay:10.37,2013-03-03 15:40:00,
2013-03-03 16:45:00,53.3,47.6,29.95,ENE,75,11.5,11.5,81,0.00,CLR,,0.00,WeatherDisplay:10.37,2013-03-03 15:45:00,
2013-03-03 16:50:00,53.3,47.6,29.94,East,88,11.5,11.5,81,0.00,CLR,,0.00,WeatherDisplay:10.37,2013-03-03 15:50:00,
2013-03-03 16:55:00,53.3,47.6,29.94,East,95,11.5,11.5,81,0.00,CLR,,0.00,WeatherDisplay:10.37,2013-03-03 15:55:00,
2013-03-03 17:00:00,53.3,47.9,29.94,ENE,74,10.4,10.4,82,0.00,CLR,,0.00,WeatherDisplay:10.37,2013-03-03 16:00:00,
2013-03-03 17:05:00,53.2,47.8,29.94,ESE,104,10.4,10.4,82,0.00,CLR,,0.00,WeatherDisplay:10.37,2013-03-03 16:05:00,
2013-03-03 17:10:00,53.1,47.7,29.95,East,99,11.5,11.5,82,0.00,CLR,,0.00,WeatherDisplay:10.37,2013-03-03 16:10:00,
2013-03-03 17:15:00,53.1,47.7,29.95,East,89,9.2,9.2,82,0.00,CLR,,0.00,WeatherDisplay:10.37,2013-03-03 16:15:00,
2013-03-03 17:20:00,53.1,47.7,29.94,ENE,77,11.5,11.5,82,0.00,CLR,,0.00,WeatherDisplay:10.37,2013-03-03 16:20:00,
2013-03-03 17:25:00,52.9,47.6,29.94,East,87,10.4,10.4,82,0.00,CLR,,0.00,WeatherDisplay:10.37,2013-03-03 16:25:00,
2013-03-03 17:30:00,52.9,47.6,29.94,East,84,11.5,11.5,82,0.00,CLR,,0.00,WeatherDisplay:10.37,2013-03-03 16:30:00,
2013-03-03 17:35:00,52.7,47.4,29.94,East,93,10.4,10.4,82,0.00,CLR,,0.00,WeatherDisplay:10.37,2013-03-03 16:35:00,
2013-03-03 17:40:00,52.6,47.6,29.94,East,82,11.5,11.5,83,0.00,CLR,,0.00,WeatherDisplay:10.37,2013-03-03 16:40:00,
2013-03-03 17:45:00,52.6,47.9,29.94,East,96,10.4,10.4,84,0.00,CLR,,0.00,WeatherDisplay:10.37,2013-03-03 16:45:00,
2013-03-03 17:50:00,52.5,47.8,29.94,East,85,10.4,10.4,84,0.00,CLR,,0.00,WeatherDisplay:10.37,2013-03-03 16:50:00,
2013-03-03 17:55:00,52.5,47.8,29.94,ENE,70,11.5,11.5,84,0.00,CLR,,0.00,WeatherDisplay:10.37,2013-03-03 16:55:00,
2013-03-03 18:00:00,52.4,47.7,29.95,East,79,11.5,11.5,84,0.00,CLR,,0.00,WeatherDisplay:10.37,2013-03-03 17:00:00,
2013-03-03 18:05:00,52.4,47.7,29.95,East,91,10.4,10.4,84,0.00,CLR,,0.00,WeatherDisplay:10.37,2013-03-03 17:05:00,
2013-03-03 18:10:00,52.2,47.5,29.95,East,85,10.4,10.4,84,0.00,CLR,,0.00,WeatherDisplay:10.37,2013-03-03 17:10:00,
2013-03-03 18:15:00,52.2,47.8,29.95,ESE,106,9.2,9.2,85,0.00,CLR,,0.00,WeatherDisplay:10.37,2013-03-03 17:15:00,
2013-03-03 18:20:00,52.1,47.7,29.94,ENE,70,11.5,11.5,85,0.00,CLR,,0.00,WeatherDisplay:10.37,2013-03-03 17:20:00,
2013-03-03 18:25:00,52.0,47.6,29.94,ENE,77,11.5,11.5,85,0.00,CLR,,0.00,WeatherDisplay:10.37,2013-03-03 17:25:00,
2013-03-03 18:30:00,51.9,47.8,29.94,ENE,62,12.7,12.7,86,0.00,CLR,,0.00,WeatherDisplay:10.37,2013-03-03 17:30:00,
2013-03-03 18:35:00,51.8,47.7,29.94,East,82,11.5,11.5,86,0.00,CLR,,0.00,WeatherDisplay:10.37,2013-03-03 17:35:00,
2013-03-03 18:40:00,51.6,47.5,29.94,ENE,77,10.4,10.4,86,0.00,CLR,,0.00,WeatherDisplay:10.37,2013-03-03 17:40:00,
2013-03-03 18:45:00,51.5,47.5,29.94,ENE,69,10.0,10.0,86,0.00,CLR,,0.00,WeatherDisplay:10.37,2013-03-03 17:45:00,
2013-03-03 18:50:00,51.5,47.8,29.95,ENE,74,11.5,11.5,87,0.00,CLR,,0.00,WeatherDisplay:10.37,2013-03-03 17:50:00,
2013-03-03 18:55:00,51.4,47.7,29.95,ENE,58,11.0,11.0,87,0.00,CLR,,0.00,WeatherDisplay:10.37,2013-03-03 17:55:00,
2013-03-03 19:00:00,51.3,47.6,29.95,ENE,75,10.4,10.4,87,0.00,CLR,,0.00,WeatherDisplay:10.37,2013-03-03 18:00:00,
2013-03-03 19:05:00,51.2,47.5,29.95,ENE,73,11.5,11.5,87,0.00,CLR,,0.00,WeatherDisplay:10.37,2013-03-03 18:05:00,
2013-03-03 19:10:00,51.2,47.5,29.95,ENE,66,11.5,11.5,87,0.00,CLR,,0.00,WeatherDisplay:10.37,2013-03-03 18:10:00,
2013-03-03 19:15:00,51.1,47.4,29.95,ENE,66,12.7,12.7,87,0.00,CLR,,0.00,WeatherDisplay:10.37,2013-03-03 18:15:00,
2013-03-03 19:20:00,51.1,47.7,29.95,East,85,11.5,11.5,88,0.00,CLR,,0.00,WeatherDisplay:10.37,2013-03-03 18:20:00,
2013-03-03 19:25:00,51.1,47.7,29.95,East,83,12.7,12.7,88,0.00,CLR,,0.00,WeatherDisplay:10.37,2013-03-03 18:25:00,
2013-03-03 19:30:00,51.0,47.6,29.95,East,87,13.8,13.8,88,0.00,CLR,,0.00,WeatherDisplay:10.37,2013-03-03 18:30:00,
2013-03-03 19:35:00,51.0,47.6,29.95,East,81,13.0,13.0,88,0.00,CLR,,0.00,WeatherDisplay:10.37,2013-03-03 18:35:00,
2013-03-03 19:40:00,51.0,47.6,29.95,East,85,12.7,12.7,88,0.00,CLR,,0.00,WeatherDisplay:10.37,2013-03-03 18:40:00,
2013-03-03 19:45:00,51.0,47.6,29.95,ENE,70,12.7,12.7,88,0.00,CLR,,0.00,WeatherDisplay:10.37,2013-03-03 18:45:00,
2013-03-03 19:50:00,51.0,47.6,29.95,East,85,13.8,13.8,88,0.00,CLR,,0.00,WeatherDisplay:10.37,2013-03-03 18:50:00,
2013-03-03 19:55:00,50.9,47.5,29.95,ENE,75,12.7,12.7,88,0.00,CLR,,0.00,WeatherDisplay:10.37,2013-03-03 18:55:00,
2013-03-03 20:00:00,50.9,47.5,29.95,ENE,64,15.0,15.0,88,0.00,CLR,,0.00,WeatherDisplay:10.37,2013-03-03 19:00:00,
2013-03-03 20:05:00,50.9,47.5,29.95,East,96,15.0,15.0,88,0.00,CLR,,0.00,WeatherDisplay:10.37,2013-03-03 19:05:00,
2013-03-03 20:10:00,51.0,47.6,29.95,ENE,58,13.8,13.8,88,0.00,CLR,,0.00,WeatherDisplay:10.37,2013-03-03 19:10:00,
2013-03-03 20:15:00,50.9,47.5,29.95,ENE,73,15.0,15.0,88,0.00,CLR,,0.00,WeatherDisplay:10.37,2013-03-03 19:15:00,
2013-03-03 20:20:00,50.9,47.5,29.95,ENE,73,15.0,15.0,88,0.00,CLR,,0.00,WeatherDisplay:10.37,2013-03-03 19:20:00,
2013-03-03 20:25:00,50.9,47.5,29.95,ENE,66,12.7,12.7,88,0.00,CLR,,0.00,WeatherDisplay:10.37,2013-03-03 19:25:00,
2013-03-03 20:30:00,50.8,47.4,29.95,East,91,15.0,15.0,88,0.00,CLR,,0.00,WeatherDisplay:10.37,2013-03-03 19:30:00,
2013-03-03 20:35:00,50.8,47.4,29.95,ESE,107,15.0,15.0,88,0.00,CLR,,0.00,WeatherDisplay:10.37,2013-03-03 19:35:00,
2013-03-03 20:40:00,50.8,47.4,29.95,East,90,13.8,13.8,88,0.00,CLR,,0.00,WeatherDisplay:10.37,2013-03-03 19:40:00,
2013-03-03 20:45:00,50.9,47.5,29.95,East,94,13.8,13.8,88,0.00,CLR,,0.00,WeatherDisplay:10.37,2013-03-03 19:45:00,
2013-03-03 20:50:00,51.0,47.6,29.95,ENE,77,15.0,15.0,88,0.00,CLR,,0.00,WeatherDisplay:10.37,2013-03-03 19:50:00,
2013-03-03 20:55:00,51.0,47.6,29.95,ESE,107,11.5,11.5,88,0.00,CLR,,0.00,WeatherDisplay:10.37,2013-03-03 19:55:00,
2013-03-03 21:00:00,51.0,47.6,29.95,ESE,102,11.5,11.5,88,0.00,CLR,,0.00,WeatherDisplay:10.37,2013-03-03 20:00:00,
2013-03-03 21:05:00,50.9,47.5,29.95,ESE,122,10.4,10.4,88,0.00,CLR,,0.00,WeatherDisplay:10.37,2013-03-03 20:05:00,
2013-03-03 21:10:00,50.9,47.8,29.95,East,85,12.7,12.7,89,0.00,CLR,,0.00,WeatherDisplay:10.37,2013-03-03 20:10:00,
2013-03-03 21:15:00,50.9,47.8,29.96,ESE,116,10.4,10.4,89,0.00,CLR,,0.00,WeatherDisplay:10.37,2013-03-03 20:15:00,
2013-03-03 21:20:00,51.0,47.9,29.95,East,91,12.7,12.7,89,0.00,CLR,,0.00,WeatherDisplay:10.37,2013-03-03 20:20:00,
2013-03-03 21:25:00,51.1,48.0,29.95,East,80,13.8,13.8,89,0.00,CLR,,0.00,WeatherDisplay:10.37,2013-03-03 20:25:00,
2013-03-03 21:30:00,51.2,48.1,29.95,East,83,13.8,13.8,89,0.00,CLR,,0.00,WeatherDisplay:10.37,2013-03-03 20:30:00,
2013-03-03 21:35:00,51.2,48.1,29.95,East,79,13.8,13.8,89,0.00,CLR,,0.00,WeatherDisplay:10.37,2013-03-03 20:35:00,
2013-03-03 21:40:00,51.2,48.1,29.95,East,83,13.8,13.8,89,0.00,CLR,,0.00,WeatherDisplay:10.37,2013-03-03 20:40:00,
2013-03-03 21:45:00,51.3,48.2,29.94,ENE,75,16.1,16.1,89,0.00,CLR,,0.00,WeatherDisplay:10.37,2013-03-03 20:45:00,
2013-03-03 21:50:00,51.3,48.2,29.94,ESE,110,15.0,15.0,89,0.00,CLR,,0.00,WeatherDisplay:10.37,2013-03-03 20:50:00,
2013-03-03 21:55:00,51.3,48.2,29.94,ESE,117,14.0,14.0,89,0.00,CLR,,0.00,WeatherDisplay:10.37,2013-03-03 20:55:00,
2013-03-03 22:00:00,51.3,48.2,29.94,ENE,75,13.8,13.8,89,0.00,CLR,,0.00,WeatherDisplay:10.37,2013-03-03 21:00:00,
2013-03-03 22:05:00,51.3,48.2,29.94,East,98,12.7,12.7,89,0.00,CLR,,0.00,WeatherDisplay:10.37,2013-03-03 21:05:00,
2013-03-03 22:10:00,51.3,48.2,29.94,NE,51,12.7,12.7,89,0.00,CLR,,0.00,WeatherDisplay:10.37,2013-03-03 21:10:00,
2013-03-03 22:15:00,51.2,48.4,29.94,ENE,77,14.0,14.0,90,0.00,CLR,,0.00,WeatherDisplay:10.37,2013-03-03 21:15:00,
2013-03-03 22:20:00,51.3,48.5,29.94,NE,48,13.8,13.8,90,0.00,CLR,,0.00,WeatherDisplay:10.37,2013-03-03 21:20:00,
2013-03-03 22:25:00,51.3,48.5,29.94,East,90,15.0,15.0,90,0.00,CLR,,0.00,WeatherDisplay:10.37,2013-03-03 21:25:00,
2013-03-03 22:30:00,51.2,48.4,29.93,East,82,13.8,13.8,90,0.00,CLR,,0.00,WeatherDisplay:10.37,2013-03-03 21:30:00,
2013-03-03 22:35:00,51.3,48.5,29.94,ENE,78,14.0,14.0,90,0.00,CLR,,0.00,WeatherDisplay:10.37,2013-03-03 21:35:00,
2013-03-03 22:40:00,51.3,48.5,29.94,SE,126,12.0,12.0,90,0.00,CLR,,0.00,WeatherDisplay:10.37,2013-03-03 21:40:00,
2013-03-03 22:45:00,51.4,48.6,29.94,East,94,15.0,15.0,90,0.00,CLR,,0.00,WeatherDisplay:10.37,2013-03-03 21:45:00,
2013-03-03 22:50:00,51.4,48.6,29.93,ENE,58,13.8,13.8,90,0.00,CLR,,0.00,WeatherDisplay:10.37,2013-03-03 21:50:00,
2013-03-03 22:55:00,51.4,48.6,29.93,ENE,77,15.0,15.0,90,0.00,CLR,,0.00,WeatherDisplay:10.37,2013-03-03 21:55:00,
2013-03-03 23:00:00,51.4,48.6,29.93,ENE,72,17.3,17.3,90,0.00,CLR,,0.00,WeatherDisplay:10.37,2013-03-03 22:00:00,
2013-03-03 23:05:00,51.5,49.0,29.93,ENE,75,16.1,16.1,91,0.00,CLR,,0.00,WeatherDisplay:10.37,2013-03-03 22:05:00,
2013-03-03 23:10:00,51.5,49.0,29.93,East,79,13.8,13.8,91,0.00,CLR,,0.00,WeatherDisplay:10.37,2013-03-03 22:10:00,
2013-03-03 23:15:00,51.6,49.1,29.93,ENE,68,13.0,13.0,91,0.00,CLR,,0.00,WeatherDisplay:10.37,2013-03-03 22:15:00,
2013-03-03 23:20:00,51.6,49.1,29.93,NE,42,15.0,15.0,91,0.00,CLR,,0.00,WeatherDisplay:10.37,2013-03-03 22:20:00,
2013-03-03 23:25:00,51.6,49.1,29.93,East,79,17.3,17.3,91,0.00,CLR,,0.00,WeatherDisplay:10.37,2013-03-03 22:25:00,
2013-03-03 23:30:00,51.7,49.2,29.93,East,89,13.8,13.8,91,0.00,CLR,,0.00,WeatherDisplay:10.37,2013-03-03 22:30:00,
2013-03-03 23:35:00,51.7,48.9,29.93,ENE,75,13.8,13.8,90,0.00,CLR,,0.00,WeatherDisplay:10.37,2013-03-03 22:35:00,
2013-03-03 23:40:00,51.8,49.0,29.93,East,85,13.8,13.8,90,0.00,CLR,,0.00,WeatherDisplay:10.37,2013-03-03 22:40:00,
2013-03-03 23:45:00,51.8,49.3,29.93,East,91,11.5,11.5,91,0.00,CLR,,0.00,WeatherDisplay:10.37,2013-03-03 22:45:00,
2013-03-03 23:50:00,51.9,49.4,29.93,ESE,107,10.4,10.4,91,0.00,CLR,,0.00,WeatherDisplay:10.37,2013-03-03 22:50:00,
2013-03-03 23:55:00,51.9,49.4,29.93,ENE,77,11.5,11.5,91,0.00,CLR,,0.00,WeatherDisplay:10.37,2013-03-03 22:55:00,